Time;durP1;ratioP1;P1;durP2;ratioP2;P2;SDS_P1;SDS_P2;PMS_P1;PMS_P2;Temp;Humidity;BMP_temperature;BMP_pressure;BME280_temperature;BME280_humidity;BME280_pressure;Samples;Min_cycle;Max_cycle;Signal;HPM_P1;HPM_P2
2022/07/21 00:00:13;;;;;;;;;;;;;;;20.50;100.00;99477.13;5075915;28;19925;-79
2022/07/21 00:02:40;;;;;;;;;;;;;;;20.15;100.00;99485.31;5075696;28;20375;-79
2022/07/21 00:05:07;;;;;;;;;;;;;;;20.49;100.00;99482.00;5074747;28;20062;-79
2022/07/21 00:07:34;;;;;;;;;;;;;;;20.59;100.00;99479.91;5075511;28;20410;-79
2022/07/21 00:10:01;;;;;;;;;;;;;;;20.66;100.00;99474.66;5074442;28;19974;-79
2022/07/21 00:12:29;;;;;;;;;;;;;;;20.43;100.00;99471.81;5075702;28;19925;-79
2022/07/21 00:14:56;;;;;;;;;;;;;;;20.53;100.00;99470.47;5075446;28;19932;-79
2022/07/21 00:17:23;;;;;;;;;;;;;;;20.34;100.00;99471.84;5075414;28;19932;-79
2022/07/21 00:19:50;;;;;;;;;;;;;;;20.38;100.00;99476.09;5074657;28;19930;-79
2022/07/21 00:22:17;;;;;;;;;;;;;;;20.56;100.00;99473.16;5072931;28;20312;-79
2022/07/21 00:24:45;;;;;;;;;;;;;;;20.75;100.00;99466.09;5073295;28;19928;-79
2022/07/21 00:27:12;;;;;;;;;;;;;;;20.63;100.00;99464.25;5074391;28;20303;-79
2022/07/21 00:29:39;;;;;;;;;;;;;;;20.44;100.00;99470.53;5074599;28;20384;-79
2022/07/21 00:32:06;;;;;;;;;;;;;;;20.43;100.00;99480.31;5073140;28;20371;-79
2022/07/21 00:34:34;;;;;;;;;;;;;;;20.48;100.00;99482.47;5073716;28;19932;-79
2022/07/21 00:37:01;;;;;;;;;;;;;;;20.58;100.00;99484.03;5075070;28;19924;-79
2022/07/21 00:39:28;;;;;;;;;;;;;;;20.32;100.00;99477.22;5075176;28;19925;-79
2022/07/21 00:41:55;;;;;;;;;;;;;;;20.25;100.00;99486.84;5074986;28;20246;-79
2022/07/21 00:44:24;;;;;;;;;;;;;;;20.43;100.00;99488.84;5073035;28;19973;-79
2022/07/21 00:46:51;;;;;;;;;;;;;;;20.25;100.00;99481.16;5073797;28;20291;-79
2022/07/21 00:49:18;;;;;;;;;;;;;;;20.19;100.00;99493.66;5074939;28;19924;-79
2022/07/21 00:51:45;;;;;;;;;;;;;;;20.04;100.00;99498.41;5074698;28;19930;-79
2022/07/21 00:54:14;;;;;;;;;;;;;;;20.10;100.00;99493.66;5073782;28;19925;-79
2022/07/21 00:56:42;;;;;;;;;;;;;;;20.27;100.00;99498.50;5073489;28;20510;-79
2022/07/21 00:59:09;;;;;;;;;;;;;;;20.15;100.00;99502.34;5074745;28;20390;-79
2022/07/21 01:01:36;;;;;;;;;;;;;;;20.26;100.00;99496.16;5074665;28;19946;-79
2022/07/21 01:04:04;;;;;;;;;;;;;;;20.41;100.00;99497.03;5074621;28;19932;-79
2022/07/21 01:06:31;;;;;;;;;;;;;;;20.33;100.00;99496.59;5090090;28;20299;-79
2022/07/21 01:08:58;;;;;;;;;;;;;;;20.41;100.00;99503.50;5073273;28;19924;-79
2022/07/21 01:11:26;;;;;;;;;;;;;;;20.27;100.00;99509.06;5074546;28;19925;-79
2022/07/21 01:14:12;;;;;;;;;;;;;;;20.10;100.00;99516.34;5074359;28;20450;-79
2022/07/21 01:16:45;;;;;;;;;;;;;;;20.27;100.00;99521.22;5074275;28;20035;-79
2022/07/21 01:19:13;;;;;;;;;;;;;;;20.26;100.00;99510.34;5074340;28;20005;-79
2022/07/21 01:21:41;;;;;;;;;;;;;;;20.08;100.00;99514.00;5074132;28;19924;-79
2022/07/21 01:24:09;;;;;;;;;;;;;;;20.24;100.00;99516.50;5073044;28;19956;-79
2022/07/21 01:26:40;;;;;;;;;;;;;;;20.02;100.00;99515.91;5072283;28;20011;-79
2022/07/21 01:29:09;;;;;;;;;;;;;;;20.17;100.00;99516.03;5072885;28;19932;-79
2022/07/21 01:31:37;;;;;;;;;;;;;;;20.09;100.00;99518.41;5074198;28;19925;-79
2022/07/21 01:34:05;;;;;;;;;;;;;;;19.84;100.00;99518.00;5073824;28;19924;-79
2022/07/21 01:36:32;;;;;;;;;;;;;;;19.65;100.00;99515.19;5089555;28;19925;-79
2022/07/21 01:41:44;;;;;;;;;;;;;;;19.95;100.00;99521.13;5074027;28;19924;-79
2022/07/21 01:44:12;;;;;;;;;;;;;;;19.70;100.00;99523.03;5073691;28;19924;-79
2022/07/21 01:46:43;;;;;;;;;;;;;;;19.89;100.00;99517.34;5072641;28;20390;-79
2022/07/21 01:49:11;;;;;;;;;;;;;;;19.70;100.00;99517.38;5072469;28;19925;-79
2022/07/21 01:51:38;;;;;;;;;;;;;;;19.65;100.00;99523.69;5073771;28;19925;-79
2022/07/21 01:54:06;;;;;;;;;;;;;;;19.45;100.00;99526.22;5073623;28;19928;-79
2022/07/21 01:56:35;;;;;;;;;;;;;;;19.16;100.00;99523.00;5073572;28;19925;-79
2022/07/21 01:59:03;;;;;;;;;;;;;;;19.81;100.00;99531.09;5072340;28;19954;-79
2022/07/21 02:01:30;;;;;;;;;;;;;;;19.29;100.00;99532.19;5073737;28;19924;-79
2022/07/21 02:04:00;;;;;;;;;;;;;;;19.28;100.00;99535.50;5072590;28;19931;-79
2022/07/21 02:06:28;;;;;;;;;;;;;;;19.42;100.00;99541.31;5070128;28;20022;-79
2022/07/21 02:08:55;;;;;;;;;;;;;;;19.13;100.00;99537.34;5070376;28;20375;-79
2022/07/21 02:11:22;;;;;;;;;;;;;;;19.30;100.00;99539.44;5070255;28;20372;-79
2022/07/21 02:13:49;;;;;;;;;;;;;;;19.40;100.00;99532.50;5071363;28;19931;-79
2022/07/21 02:16:16;;;;;;;;;;;;;;;18.98;100.00;99545.66;5052988;28;20019;-79
2022/07/21 02:18:44;;;;;;;;;;;;;;;19.01;100.00;99544.72;5071267;28;19924;-79
2022/07/21 02:21:11;;;;;;;;;;;;;;;19.51;100.00;99544.16;5072013;28;20501;-79
2022/07/21 02:23:38;;;;;;;;;;;;;;;19.47;100.00;99537.88;5055460;28;20283;-79
2022/07/21 02:26:05;;;;;;;;;;;;;;;19.84;100.00;99535.00;5071808;28;19924;-79
2022/07/21 02:28:33;;;;;;;;;;;;;;;19.42;100.00;99535.66;5073311;28;19928;-79
2022/07/21 02:31:00;;;;;;;;;;;;;;;19.64;100.00;99541.16;5072636;28;20276;-79
2022/07/21 02:33:27;;;;;;;;;;;;;;;19.55;100.00;99547.63;5072956;28;19928;-79
2022/07/21 02:35:54;;;;;;;;;;;;;;;19.93;100.00;99547.13;5073119;28;19951;-79
2022/07/21 02:38:21;;;;;;;;;;;;;;;19.63;100.00;99548.88;5073081;28;19978;-79
2022/07/21 02:40:49;;;;;;;;;;;;;;;19.45;100.00;99546.06;5055457;28;19925;-79
2022/07/21 02:43:19;;;;;;;;;;;;;;;19.83;100.00;99542.72;5055802;28;19925;-79
2022/07/21 02:45:46;;;;;;;;;;;;;;;19.89;100.00;99540.03;5073033;28;20272;-79
2022/07/21 02:48:13;;;;;;;;;;;;;;;19.73;100.00;99539.09;5072937;28;19931;-79
2022/07/21 02:50:42;;;;;;;;;;;;;;;19.64;100.00;99547.59;5071670;28;20402;-79
2022/07/21 02:53:11;;;;;;;;;;;;;;;19.80;100.00;99543.66;5071846;28;19956;-79
2022/07/21 02:55:38;;;;;;;;;;;;;;;19.39;100.00;99547.13;5072765;28;19932;-79
2022/07/21 02:58:17;;;;;;;;;;;;;;;19.32;100.00;99536.94;5071583;28;19975;-79
2022/07/21 03:00:45;;;;;;;;;;;;;;;19.73;100.00;99548.88;5072741;28;19929;-79
2022/07/21 03:03:12;;;;;;;;;;;;;;;19.54;100.00;99548.88;5071657;28;19930;-79
2022/07/21 03:05:40;;;;;;;;;;;;;;;19.38;100.00;99546.38;5071532;28;19931;-79
2022/07/21 03:08:08;;;;;;;;;;;;;;;19.24;100.00;99537.66;5072772;28;19928;-79
2022/07/21 03:10:36;;;;;;;;;;;;;;;19.14;100.00;99542.53;5072630;28;20011;-79
2022/07/21 03:13:04;;;;;;;;;;;;;;;19.29;100.00;99543.53;5072748;28;19990;-79
2022/07/21 03:15:32;;;;;;;;;;;;;;;19.22;100.00;99538.13;5054817;28;20066;-79
2022/07/21 03:17:59;;;;;;;;;;;;;;;19.17;100.00;99540.81;5058541;28;19947;-79
2022/07/21 03:20:27;;;;;;;;;;;;;;;19.31;100.00;99543.84;5076630;28;19932;-79
2022/07/21 03:22:54;;;;;;;;;;;;;;;19.45;100.00;99534.72;5076509;28;19924;-79
2022/07/21 03:25:22;;;;;;;;;;;;;;;19.29;100.00;99546.38;5076484;28;19924;-79
2022/07/21 03:27:50;;;;;;;;;;;;;;;19.19;100.00;99541.13;5076488;28;19928;-79
2022/07/21 03:30:17;;;;;;;;;;;;;;;19.25;100.00;99539.25;5075124;28;20015;-79
2022/07/21 03:32:44;;;;;;;;;;;;;;;19.14;100.00;99536.88;5075109;28;19925;-79
2022/07/21 03:35:13;;;;;;;;;;;;;;;19.21;100.00;99547.91;5075202;28;19994;-79
2022/07/21 03:37:48;;;;;;;;;;;;;;;19.30;100.00;99553.59;5076300;28;19955;-79
2022/07/21 03:40:16;;;;;;;;;;;;;;;19.24;100.00;99552.63;5076224;28;20367;-79
2022/07/21 03:42:43;;;;;;;;;;;;;;;19.31;100.00;99546.66;5076213;28;20021;-79
2022/07/21 03:45:11;;;;;;;;;;;;;;;19.43;100.00;99547.78;5074792;28;19931;-79
2022/07/21 03:47:38;;;;;;;;;;;;;;;19.17;100.00;99558.59;5109043;28;20303;-79
2022/07/21 03:50:05;;;;;;;;;;;;;;;19.17;100.00;99564.28;5091822;28;19970;-79
2022/07/21 03:52:33;;;;;;;;;;;;;;;19.13;100.00;99560.00;5058262;28;20422;-79
2022/07/21 03:55:09;;;;;;;;;;;;;;;19.15;100.00;99561.09;5058065;28;19924;-79
2022/07/21 03:57:43;;;;;;;;;;;;;;;18.95;100.00;99563.56;5075834;28;19931;-79
2022/07/21 04:00:12;;;;;;;;;;;;;;;19.41;100.00;99562.44;5075626;28;19925;-79
2022/07/21 04:02:39;;;;;;;;;;;;;;;19.54;100.00;99562.25;5074629;28;19925;-79
2022/07/21 04:05:13;;;;;;;;;;;;;;;19.47;100.00;99566.22;5076047;28;19932;-79
2022/07/21 04:07:46;;;;;;;;;;;;;;;19.46;100.00;99564.63;5075777;28;19924;-79
2022/07/21 04:10:20;;;;;;;;;;;;;;;19.36;100.00;99565.88;5074489;28;20398;-79
2022/07/21 04:12:48;;;;;;;;;;;;;;;19.21;100.00;99570.56;5075671;28;19937;-79
2022/07/21 04:15:16;;;;;;;;;;;;;;;19.63;100.00;99563.06;5057790;28;19924;-79
2022/07/21 04:17:43;;;;;;;;;;;;;;;19.63;100.00;99568.72;5075498;28;19924;-79
2022/07/21 04:20:12;;;;;;;;;;;;;;;19.68;100.00;99562.44;5075567;28;19924;-79
2022/07/21 04:22:39;;;;;;;;;;;;;;;19.65;100.00;99571.09;5074179;28;19924;-80
2022/07/21 04:25:07;;;;;;;;;;;;;;;19.52;100.00;99568.41;5074460;28;20346;-79
2022/07/21 04:27:35;;;;;;;;;;;;;;;19.59;100.00;99568.09;5073026;28;20283;-79
2022/07/21 04:30:04;;;;;;;;;;;;;;;19.45;100.00;99570.75;5074044;28;19931;-79
2022/07/21 04:32:31;;;;;;;;;;;;;;;19.43;100.00;99568.41;5074238;28;19925;-79
2022/07/21 04:34:58;;;;;;;;;;;;;;;19.45;100.00;99579.25;5075250;28;19932;-79
2022/07/21 04:37:25;;;;;;;;;;;;;;;19.59;100.00;99567.31;5073857;28;19925;-79
2022/07/21 04:39:53;;;;;;;;;;;;;;;19.30;100.00;99578.31;5074081;28;19924;-79
2022/07/21 04:42:20;;;;;;;;;;;;;;;19.31;100.00;99580.66;5073783;28;20501;-79
2022/07/21 04:44:47;;;;;;;;;;;;;;;18.83;100.00;99581.47;5075237;28;19946;-79
2022/07/21 04:47:14;;;;;;;;;;;;;;;18.66;100.00;99590.69;5073910;28;19924;-79
2022/07/21 04:49:41;;;;;;;;;;;;;;;19.09;100.00;99588.47;5073793;28;19931;-79
2022/07/21 04:52:08;;;;;;;;;;;;;;;19.28;100.00;99592.94;5073862;28;20398;-79
2022/07/21 04:54:35;;;;;;;;;;;;;;;19.42;100.00;99585.88;5074840;28;19925;-79
2022/07/21 04:57:04;;;;;;;;;;;;;;;19.18;100.00;99588.50;5074616;28;20366;-79
2022/07/21 04:59:31;;;;;;;;;;;;;;;19.54;100.00;99590.59;5073539;28;20337;-79
2022/07/21 05:01:58;;;;;;;;;;;;;;;19.53;100.00;99587.00;5074815;28;19936;-80
2022/07/21 05:04:26;;;;;;;;;;;;;;;19.73;100.00;99588.56;5074571;28;19924;-80
2022/07/21 05:06:53;;;;;;;;;;;;;;;19.40;100.00;99591.25;5056887;28;19924;-80
2022/07/21 05:09:20;;;;;;;;;;;;;;;19.17;100.00;99586.94;5073691;28;20287;-79
2022/07/21 05:11:48;;;;;;;;;;;;;;;19.27;100.00;99585.69;5074785;28;19936;-79
2022/07/21 05:14:15;;;;;;;;;;;;;;;19.32;100.00;99599.25;5074352;28;20021;-81
2022/07/21 05:16:44;;;;;;;;;;;;;;;19.30;100.00;99596.09;5073993;28;19925;-79
2022/07/21 05:19:11;;;;;;;;;;;;;;;19.35;100.00;99604.00;5075265;28;19931;-79
2022/07/21 05:21:38;;;;;;;;;;;;;;;19.43;100.00;99605.22;5073656;28;20407;-79
2022/07/21 05:24:05;;;;;;;;;;;;;;;19.62;100.00;99600.38;5074239;28;20019;-79
2022/07/21 05:26:32;;;;;;;;;;;;;;;19.75;100.00;99605.91;5075191;28;19928;-79
2022/07/21 05:28:59;;;;;;;;;;;;;;;19.14;100.00;99609.72;5075157;28;19925;-79
2022/07/21 05:31:26;;;;;;;;;;;;;;;19.21;100.00;99610.22;5073744;28;19929;-80
2022/07/21 05:33:53;;;;;;;;;;;;;;;19.28;100.00;99604.28;5075060;28;19939;-79
2022/07/21 05:36:21;;;;;;;;;;;;;;;19.70;100.00;99602.41;5075069;28;20011;-79
2022/07/21 05:38:48;;;;;;;;;;;;;;;19.40;100.00;99611.06;5074671;28;19974;-79
2022/07/21 05:41:15;;;;;;;;;;;;;;;19.41;100.00;99619.09;5074854;28;19968;-79
2022/07/21 05:43:42;;;;;;;;;;;;;;;19.59;100.00;99619.13;5073821;28;19963;-79
2022/07/21 05:46:09;;;;;;;;;;;;;;;19.43;100.00;99621.47;5073746;28;19925;-79
2022/07/21 05:48:36;;;;;;;;;;;;;;;19.60;100.00;99620.69;5074765;28;19924;-79
2022/07/21 05:51:03;;;;;;;;;;;;;;;19.60;100.00;99622.72;5073442;28;20371;-80
2022/07/21 05:53:30;;;;;;;;;;;;;;;19.56;100.00;99624.94;5072433;28;20447;-80
2022/07/21 05:55:57;;;;;;;;;;;;;;;19.76;100.00;99621.63;5072719;28;20019;-80
2022/07/21 05:58:24;;;;;;;;;;;;;;;19.74;100.00;99613.59;5072297;28;19925;-79
2022/07/21 06:01:08;;;;;;;;;;;;;;;19.55;100.00;99624.13;5073640;28;19934;-80
2022/07/21 06:03:38;;;;;;;;;;;;;;;19.36;100.00;99633.88;5073569;28;19928;-79
2022/07/21 06:06:05;;;;;;;;;;;;;;;19.26;100.00;99629.44;5072462;28;20338;-80
2022/07/21 06:08:32;;;;;;;;;;;;;;;19.40;100.00;99640.19;5073498;28;19947;-80
2022/07/21 06:10:59;;;;;;;;;;;;;;;19.36;100.00;99638.75;5073041;28;19924;-80
2022/07/21 06:13:27;;;;;;;;;;;;;;;19.53;100.00;99638.00;5072086;28;19963;-80
2022/07/21 06:15:54;;;;;;;;;;;;;;;19.51;100.00;99639.72;5072135;28;19931;-80
2022/07/21 06:18:21;;;;;;;;;;;;;;;19.52;100.00;99639.25;5073288;28;19925;-80
2022/07/21 06:20:48;;;;;;;;;;;;;;;19.57;100.00;99644.31;5073007;28;20304;-79
2022/07/21 06:23:15;;;;;;;;;;;;;;;19.61;100.00;99641.34;5071917;28;20018;-80
2022/07/21 06:25:42;;;;;;;;;;;;;;;19.86;100.00;99646.69;5072837;28;19966;-80
2022/07/21 06:28:09;;;;;;;;;;;;;;;19.90;100.00;99641.66;5073343;28;19931;-80
2022/07/21 06:30:37;;;;;;;;;;;;;;;19.70;100.00;99647.78;5071475;28;20391;-80
2022/07/21 06:33:04;;;;;;;;;;;;;;;19.90;100.00;99650.16;5071473;28;19931;-80
2022/07/21 06:35:31;;;;;;;;;;;;;;;20.10;100.00;99644.78;5070755;28;20011;-80
2022/07/21 06:37:59;;;;;;;;;;;;;;;20.12;100.00;99644.31;5071945;28;19931;-80
2022/07/21 06:40:26;;;;;;;;;;;;;;;20.11;100.00;99643.53;5072227;28;19925;-79
2022/07/21 06:42:54;;;;;;;;;;;;;;;20.16;100.00;99653.50;5074149;28;19932;-80
2022/07/21 06:45:41;;;;;;;;;;;;;;;20.22;100.00;99654.44;5073889;28;19925;-80
2022/07/21 06:48:09;;;;;;;;;;;;;;;20.01;100.00;99652.53;5073882;28;19963;-80
2022/07/21 06:50:36;;;;;;;;;;;;;;;20.26;100.00;99664.34;5088849;28;20322;-80
2022/07/21 06:53:04;;;;;;;;;;;;;;;20.39;100.00;99667.00;5073661;28;19925;-80
2022/07/21 06:55:31;;;;;;;;;;;;;;;20.35;100.00;99669.22;5073783;28;19924;-80
2022/07/21 06:58:07;;;;;;;;;;;;;;;20.35;100.00;99672.06;5073791;28;19928;-80
2022/07/21 07:00:35;;;;;;;;;;;;;;;19.79;100.00;99668.91;5073844;28;20023;-80
2022/07/21 07:03:02;;;;;;;;;;;;;;;19.91;100.00;99673.63;5072391;28;20366;-80
2022/07/21 07:05:30;;;;;;;;;;;;;;;19.81;100.00;99670.03;5073937;28;20378;-80
2022/07/21 07:07:58;;;;;;;;;;;;;;;19.78;100.00;99678.66;5072483;28;19928;-80
2022/07/21 07:10:25;;;;;;;;;;;;;;;20.13;100.00;99674.31;5072580;28;20403;-79
2022/07/21 07:12:52;;;;;;;;;;;;;;;19.66;100.00;99678.34;5073595;28;19932;-80
2022/07/21 07:15:39;;;;;;;;;;;;;;;19.70;100.00;99681.78;5073262;28;19930;-80
2022/07/21 07:18:07;;;;;;;;;;;;;;;20.01;100.00;99673.16;5073631;28;20318;-80
2022/07/21 07:20:34;;;;;;;;;;;;;;;20.21;100.00;99678.38;5072391;28;19924;-80
2022/07/21 07:23:01;;;;;;;;;;;;;;;20.28;100.00;99683.75;5073363;28;19932;-79
2022/07/21 07:25:28;;;;;;;;;;;;;;;20.18;100.00;99687.84;5073578;28;19928;-80
2022/07/21 07:27:56;;;;;;;;;;;;;;;20.42;100.00;99692.38;5073418;28;19931;-80
2022/07/21 07:30:24;;;;;;;;;;;;;;;20.18;100.00;99687.84;5073459;28;19924;-80
2022/07/21 07:32:51;;;;;;;;;;;;;;;19.98;100.00;99693.19;5072252;28;20261;-80
2022/07/21 07:35:18;;;;;;;;;;;;;;;20.19;100.00;99700.78;5068182;28;20330;-80
2022/07/21 07:37:46;;;;;;;;;;;;;;;20.41;100.00;99698.53;5068115;28;19932;-80
2022/07/21 07:40:15;;;;;;;;;;;;;;;20.14;100.00;99704.25;5068484;28;19932;-80
2022/07/21 07:42:43;;;;;;;;;;;;;;;20.35;100.00;99698.41;5051321;28;20283;-80
2022/07/21 07:45:11;;;;;;;;;;;;;;;20.31;100.00;99708.34;5050461;28;19933;-80
2022/07/21 07:47:38;;;;;;;;;;;;;;;19.54;100.00;99723.81;5050593;28;19936;-80
2022/07/21 07:50:08;;;;;;;;;;;;;;;19.89;100.00;99730.06;5035171;28;20015;-80
2022/07/21 07:52:35;;;;;;;;;;;;;;;20.22;100.00;99734.66;5052548;28;19924;-80
2022/07/21 07:55:06;;;;;;;;;;;;;;;20.64;100.00;99729.91;5051856;28;19974;-80
2022/07/21 07:57:34;;;;;;;;;;;;;;;20.30;100.00;99718.09;5053250;28;19974;-80
2022/07/21 08:00:03;;;;;;;;;;;;;;;20.67;100.00;99731.78;5052873;28;19925;-81
2022/07/21 08:02:37;;;;;;;;;;;;;;;21.08;100.00;99738.81;5053251;28;19947;-81
2022/07/21 08:05:05;;;;;;;;;;;;;;;20.31;100.00;99736.72;5038953;28;19932;-80
2022/07/21 08:07:32;;;;;;;;;;;;;;;20.99;100.00;99747.38;5038761;28;19925;-81
2022/07/21 08:09:59;;;;;;;;;;;;;;;21.24;100.00;99744.09;5057241;28;19925;-81
2022/07/21 08:12:42;;;;;;;;;;;;;;;21.52;100.00;99739.88;5070281;28;19924;-80
2022/07/21 08:15:09;;;;;;;;;;;;;;;21.53;100.00;99735.75;5075992;28;19982;-80
2022/07/21 08:17:36;;;;;;;;;;;;;;;20.82;100.00;99748.94;5091281;28;19948;-80
2022/07/21 08:20:04;;;;;;;;;;;;;;;21.19;100.00;99750.44;5074315;28;19925;-80
2022/07/21 08:22:32;;;;;;;;;;;;;;;21.61;100.00;99737.00;5076233;28;19946;-81
2022/07/21 08:24:59;;;;;;;;;;;;;;;21.89;100.00;99746.16;5075972;28;19929;-80
2022/07/21 08:27:26;;;;;;;;;;;;;;;22.10;100.00;99745.84;5076019;28;19931;-80
2022/07/21 08:29:53;;;;;;;;;;;;;;;22.24;100.00;99742.25;5074746;28;19924;-80
2022/07/21 08:32:20;;;;;;;;;;;;;;;22.51;100.00;99739.22;5076268;28;19928;-81
2022/07/21 08:34:47;;;;;;;;;;;;;;;22.51;100.00;99744.91;5075817;28;19931;-81
2022/07/21 08:37:15;;;;;;;;;;;;;;;22.41;100.00;99743.41;5075028;28;19924;-80
2022/07/21 08:39:43;;;;;;;;;;;;;;;22.55;100.00;99742.66;5074611;28;19966;-81
2022/07/21 08:42:12;;;;;;;;;;;;;;;22.53;100.00;99739.50;5075847;28;20015;-81
2022/07/21 08:44:39;;;;;;;;;;;;;;;22.61;100.00;99737.06;5074659;28;20284;-80
2022/07/21 08:47:06;;;;;;;;;;;;;;;22.64;100.00;99733.25;5074841;28;20370;-81
2022/07/21 08:49:34;;;;;;;;;;;;;;;22.64;100.00;99731.16;5074546;28;19928;-80
2022/07/21 08:52:01;;;;;;;;;;;;;;;22.74;100.00;99738.34;5075702;28;19932;-80
2022/07/21 08:54:28;;;;;;;;;;;;;;;22.76;100.00;99735.81;5057745;28;19943;-80
2022/07/21 08:56:56;;;;;;;;;;;;;;;22.59;100.00;99743.25;5075746;28;19971;-80
2022/07/21 08:59:23;;;;;;;;;;;;;;;22.50;100.00;99733.97;5075486;28;19928;-80
2022/07/21 09:01:54;;;;;;;;;;;;;;;22.29;100.00;99743.66;5057955;28;19931;-81
2022/07/21 09:04:29;;;;;;;;;;;;;;;22.38;100.00;99738.69;5075331;28;19924;-80
2022/07/21 09:07:04;;;;;;;;;;;;;;;22.43;100.00;99740.81;5074338;28;20446;-80
2022/07/21 09:09:33;;;;;;;;;;;;;;;22.29;100.00;99741.59;5074153;28;19977;-80
2022/07/21 09:12:00;;;;;;;;;;;;;;;22.28;100.00;99742.84;5073924;28;19925;-79
2022/07/21 09:14:32;;;;;;;;;;;;;;;22.44;100.00;99739.56;5073352;28;20043;-80
2022/07/21 09:17:01;;;;;;;;;;;;;;;22.20;100.00;99744.53;5075396;28;19951;-80
2022/07/21 09:19:38;;;;;;;;;;;;;;;22.17;100.00;99742.66;5089332;28;20387;-80
2022/07/21 09:22:06;;;;;;;;;;;;;;;22.21;100.00;99740.41;5055057;28;19956;-80
2022/07/21 09:24:40;;;;;;;;;;;;;;;22.16;100.00;99741.06;5053998;28;19925;-80
2022/07/21 09:27:08;;;;;;;;;;;;;;;22.07;100.00;99746.81;5065763;28;19924;-80
2022/07/21 09:29:44;;;;;;;;;;;;;;;22.32;100.00;99749.16;5075113;28;20360;-80
2022/07/21 09:32:17;;;;;;;;;;;;;;;22.40;100.00;99741.81;5107410;28;19924;-80
2022/07/21 09:34:45;;;;;;;;;;;;;;;21.79;100.00;99742.59;5074722;28;19930;-80
2022/07/21 09:37:13;;;;;;;;;;;;;;;21.87;100.00;99743.03;5074684;28;19947;-80
2022/07/21 09:39:40;;;;;;;;;;;;;;;21.92;100.00;99740.28;5073542;28;20378;-80
2022/07/21 09:42:15;;;;;;;;;;;;;;;22.16;100.00;99740.28;5074632;28;19960;-80
2022/07/21 09:44:46;;;;;;;;;;;;;;;22.31;100.00;99741.88;5073515;28;20018;-80
2022/07/21 09:47:14;;;;;;;;;;;;;;;22.73;100.00;99730.31;5074378;28;20273;-79
2022/07/21 09:49:42;;;;;;;;;;;;;;;23.05;100.00;99729.31;5074307;28;20426;-79
2022/07/21 09:52:34;;;;;;;;;;;;;;;23.40;100.00;99735.09;5073266;28;20019;-80
2022/07/21 09:55:04;;;;;;;;;;;;;;;23.42;100.00;99735.38;5074512;28;20405;-80
2022/07/21 09:57:31;;;;;;;;;;;;;;;23.82;100.00;99733.41;5074321;28;20374;-80
2022/07/21 09:59:58;;;;;;;;;;;;;;;23.93;100.00;99732.75;5073229;28;19924;-80
2022/07/21 10:02:32;;;;;;;;;;;;;;;24.04;100.00;99724.34;5074129;28;19971;-80
2022/07/21 10:05:06;;;;;;;;;;;;;;;23.25;100.00;99740.03;5072607;28;19924;-80
2022/07/21 10:07:37;;;;;;;;;;;;;;;23.95;100.00;99741.59;5073760;28;19924;-81
2022/07/21 10:10:04;;;;;;;;;;;;;;;24.15;100.00;99738.78;5038840;28;20015;-79
2022/07/21 10:12:32;;;;;;;;;;;;;;;24.30;100.00;99742.34;5073268;28;19924;-80
2022/07/21 10:14:59;;;;;;;;;;;;;;;23.76;100.00;99746.00;5074206;28;20341;-81
2022/07/21 10:17:26;;;;;;;;;;;;;;;24.32;100.00;99739.78;5056318;28;20465;-80
2022/07/21 10:19:59;;;;;;;;;;;;;;;24.43;100.00;99739.91;5072829;28;19924;-81
2022/07/21 10:22:29;;;;;;;;;;;;;;;24.52;100.00;99745.47;5072743;28;20389;-80
2022/07/21 10:24:58;;;;;;;;;;;;;;;24.76;100.00;99746.78;5074062;28;19940;-80
2022/07/21 10:27:25;;;;;;;;;;;;;;;25.02;100.00;99741.09;5072705;28;20431;-80
2022/07/21 10:30:04;;;;;;;;;;;;;;;25.06;100.00;99730.19;5072768;28;20398;-81
2022/07/21 10:32:35;;;;;;;;;;;;;;;24.49;100.00;99749.34;5072785;28;19924;-81
2022/07/21 10:35:22;;;;;;;;;;;;;;;23.24;100.00;99741.28;5072707;28;19931;-80
2022/07/21 10:37:49;;;;;;;;;;;;;;;22.99;100.00;99740.59;5073896;28;19950;-80
2022/07/21 10:40:19;;;;;;;;;;;;;;;24.11;100.00;99738.22;5073901;28;19972;-81
2022/07/21 10:42:59;;;;;;;;;;;;;;;24.68;100.00;99744.88;5072545;28;19946;-80
2022/07/21 10:45:33;;;;;;;;;;;;;;;25.00;100.00;99737.94;5072414;28;20404;-81
2022/07/21 10:48:01;;;;;;;;;;;;;;;25.00;100.00;99737.16;5073804;28;19929;-80
2022/07/21 10:50:32;;;;;;;;;;;;;;;24.55;100.00;99736.66;5072610;28;19932;-80
2022/07/21 10:53:00;;;;;;;;;;;;;;;25.20;100.00;99737.84;5072546;28;19946;-81
2022/07/21 10:55:29;;;;;;;;;;;;;;;25.58;100.00;99731.66;5073696;28;19924;-81
2022/07/21 10:58:14;;;;;;;;;;;;;;;25.82;100.00;99737.81;5073788;28;20267;-81
2022/07/21 11:00:45;;;;;;;;;;;;;;;26.01;100.00;99736.09;5073273;28;19931;-80
2022/07/21 11:03:18;;;;;;;;;;;;;;;25.47;100.00;99730.81;5073506;28;19931;-81
2022/07/21 11:06:04;;;;;;;;;;;;;;;24.91;100.00;99746.69;5072605;28;20386;-81
2022/07/21 11:08:34;;;;;;;;;;;;;;;24.76;100.00;99737.44;5072807;28;19924;-81
2022/07/21 11:11:26;;;;;;;;;;;;;;;24.92;100.00;99739.66;5072828;28;19924;-80
2022/07/21 11:14:02;;;;;;;;;;;;;;;24.98;100.00;99734.78;5068037;28;19928;-81
2022/07/21 11:16:42;;;;;;;;;;;;;;;25.24;100.00;99735.53;5072427;28;19928;-80
2022/07/21 11:19:28;;;;;;;;;;;;;;;25.01;100.00;99741.59;5074227;28;19935;-82
2022/07/21 11:21:56;;;;;;;;;;;;;;;25.13;100.00;99732.59;5052986;28;20252;-80
2022/07/21 11:24:24;;;;;;;;;;;;;;;25.33;100.00;99726.81;5070598;28;19970;-81
2022/07/21 11:26:56;;;;;;;;;;;;;;;25.36;100.00;99731.50;5071020;28;20015;-81
2022/07/21 11:29:24;;;;;;;;;;;;;;;25.36;100.00;99740.09;5070644;28;19925;-80
2022/07/21 11:31:52;;;;;;;;;;;;;;;25.57;100.00;99744.41;5039172;28;19925;-81
2022/07/21 11:34:20;;;;;;;;;;;;;;;25.88;100.00;99746.41;5105884;28;20296;-81
2022/07/21 11:36:47;;;;;;;;;;;;;;;25.75;100.00;99735.41;5072118;28;20253;-81
2022/07/21 11:39:23;;;;;;;;;;;;;;;25.76;100.00;99742.72;5077082;28;19935;-81
2022/07/21 11:41:53;;;;;;;;;;;;;;;25.58;100.00;99743.09;5075849;28;19930;-81
2022/07/21 11:44:25;;;;;;;;;;;;;;;25.51;100.00;99749.31;5076724;28;19950;-81
2022/07/21 11:46:53;;;;;;;;;;;;;;;25.40;100.00;99743.50;5077024;28;19959;-81
2022/07/21 11:49:21;;;;;;;;;;;;;;;25.31;100.00;99751.47;5075853;28;19928;-80
2022/07/21 11:51:59;;;;;;;;;;;;;;;24.56;100.00;99748.88;5109437;28;19924;-81
2022/07/21 11:54:28;;;;;;;;;;;;;;;24.30;100.00;99750.91;5075363;28;19926;-81
2022/07/21 11:56:57;;;;;;;;;;;;;;;23.80;100.00;99755.13;5075676;28;19973;-81
2022/07/21 11:59:24;;;;;;;;;;;;;;;23.15;100.00;99762.13;5075298;28;19924;-81
2022/07/21 12:01:51;;;;;;;;;;;;;;;23.79;100.00;99759.28;5058920;28;19924;-81
2022/07/21 12:04:26;;;;;;;;;;;;;;;23.98;100.00;99757.75;5076864;28;19979;-81
2022/07/21 12:06:53;;;;;;;;;;;;;;;23.66;100.00;99771.03;5076579;28;19970;-81
2022/07/21 12:09:20;;;;;;;;;;;;;;;23.97;100.00;99762.69;5076678;28;19990;-81
2022/07/21 12:11:47;;;;;;;;;;;;;;;23.61;100.00;99766.03;5058704;28;19924;-81
2022/07/21 12:14:15;;;;;;;;;;;;;;;23.34;100.00;99774.91;5042149;28;20413;-81
2022/07/21 12:16:59;;;;;;;;;;;;;;;22.77;100.00;99777.25;5074201;28;19966;-81
2022/07/21 12:19:27;;;;;;;;;;;;;;;22.36;100.00;99780.28;5074848;28;20447;-81
2022/07/21 12:21:54;;;;;;;;;;;;;;;22.66;100.00;99765.66;5074986;28;19924;-80
2022/07/21 12:24:21;;;;;;;;;;;;;;;22.67;100.00;99767.22;5073679;28;19925;-80
2022/07/21 12:26:48;;;;;;;;;;;;;;;22.68;100.00;99768.81;5074099;28;19989;-80
2022/07/21 12:29:29;;;;;;;;;;;;;;;23.05;100.00;99763.53;5074160;28;19931;-80
2022/07/21 12:31:56;;;;;;;;;;;;;;;23.44;100.00;99761.34;5076342;28;19933;-79
2022/07/21 12:34:24;;;;;;;;;;;;;;;23.66;100.00;99758.84;5058277;28;19924;-80
2022/07/21 12:36:53;;;;;;;;;;;;;;;23.34;100.00;99765.59;5076127;28;20354;-81
2022/07/21 12:42:07;;;;;;;;;;;;;;;23.64;100.00;99764.25;5076121;28;19928;-81
2022/07/21 12:44:35;;;;;;;;;;;;;;;23.69;100.00;99760.69;5091696;28;19960;-80
2022/07/21 12:47:16;;;;;;;;;;;;;;;23.21;100.00;99759.38;5076293;28;19993;-81
2022/07/21 12:50:01;;;;;;;;;;;;;;;23.29;100.00;99767.06;5091006;28;20009;-81